createdAt,value
2023-03-02T00:00:16.297Z,-2.87
2023-03-02T00:03:20.389Z,-3.00
2023-03-02T00:06:23.079Z,-3.00
2023-03-02T00:09:26.269Z,-3.04
2023-03-02T00:12:29.777Z,-3.05
2023-03-02T00:15:38.894Z,-3.06
2023-03-02T00:18:43.221Z,-3.08
2023-03-02T00:21:45.962Z,-3.11
2023-03-02T00:24:48.632Z,-3.09
2023-03-02T00:27:51.368Z,-3.10
2023-03-02T00:30:55.331Z,-3.14
2023-03-02T00:33:58.311Z,-3.14
2023-03-02T00:37:01.103Z,-3.21
2023-03-02T00:40:09.756Z,-3.15
2023-03-02T00:43:13.879Z,-3.27
2023-03-02T00:46:20.362Z,-3.40
2023-03-02T00:49:23.436Z,-3.47
2023-03-02T00:52:26.585Z,-3.51
2023-03-02T00:55:29.284Z,-3.55
2023-03-02T00:58:32.157Z,-3.56
2023-03-02T01:01:34.924Z,-3.53
2023-03-02T01:04:40.439Z,-3.47
2023-03-02T01:07:43.240Z,-3.46
2023-03-02T01:10:46.568Z,-3.53
2023-03-02T01:13:50.555Z,-3.62
2023-03-02T01:16:53.325Z,-3.63
2023-03-02T01:19:56.651Z,-3.62
2023-03-02T01:22:59.810Z,-3.62
2023-03-02T01:26:02.770Z,-3.61
2023-03-02T01:29:05.541Z,-3.61
2023-03-02T01:32:08.426Z,-3.58
2023-03-02T01:35:11.440Z,-3.58
2023-03-02T01:38:14.747Z,-3.58
2023-03-02T01:41:18.099Z,-3.57
2023-03-02T01:44:39.785Z,-3.64
2023-03-02T01:47:42.384Z,-3.71
2023-03-02T01:50:45.502Z,-3.71
2023-03-02T01:53:52.091Z,-3.72
2023-03-02T01:56:58.712Z,-3.76
2023-03-02T02:00:08.818Z,-3.73
2023-03-02T02:03:22.108Z,-3.74
2023-03-02T02:06:51.780Z,-3.74
2023-03-02T02:09:56.837Z,-3.73
2023-03-02T02:12:59.598Z,-3.74
2023-03-02T02:16:05.442Z,-3.76
2023-03-02T02:19:36.083Z,-3.93
2023-03-02T02:23:17.757Z,-3.93
2023-03-02T02:26:23.584Z,-3.98
2023-03-02T02:29:53.266Z,-3.96
2023-03-02T02:33:00.069Z,-3.97
2023-03-02T02:36:06.737Z,-4.13
2023-03-02T02:39:16.728Z,-4.18
2023-03-02T02:42:22.219Z,-4.29
2023-03-02T02:45:27.138Z,-4.32
2023-03-02T02:48:31.743Z,-4.27
2023-03-02T02:51:38.893Z,-4.23
2023-03-02T02:54:44.400Z,-4.22
2023-03-02T02:57:47.498Z,-4.18
2023-03-02T03:00:55.167Z,-4.30
2023-03-02T03:04:02.475Z,-4.41
2023-03-02T03:07:06.547Z,-4.46
2023-03-02T03:10:19.750Z,-4.54
2023-03-02T03:13:22.576Z,-4.53
2023-03-02T03:16:27.870Z,-4.61
2023-03-02T03:19:32.500Z,-4.59
2023-03-02T03:22:39.209Z,-4.53
2023-03-02T03:25:41.951Z,-4.52
2023-03-02T03:28:48.136Z,-4.53
2023-03-02T03:31:52.447Z,-4.51
2023-03-02T03:34:55.184Z,-4.48
2023-03-02T03:38:01.035Z,-4.51
2023-03-02T03:41:05.404Z,-4.50
2023-03-02T03:44:08.698Z,-4.58
2023-03-02T03:47:11.619Z,-4.65
2023-03-02T03:50:17.744Z,-4.65
2023-03-02T03:53:20.779Z,-4.61
2023-03-02T03:56:23.446Z,-4.64
2023-03-02T03:59:27.256Z,-4.70
2023-03-02T04:02:32.888Z,-4.81
2023-03-02T04:05:35.700Z,-4.92
2023-03-02T04:08:38.401Z,-4.76
2023-03-02T04:11:42.957Z,-4.82
2023-03-02T04:14:45.828Z,-4.93
2023-03-02T04:17:48.529Z,-4.99
2023-03-02T04:20:51.480Z,-4.97
2023-03-02T04:23:57.344Z,-4.98
2023-03-02T04:27:00.196Z,-4.95
2023-03-02T04:30:03.054Z,-4.91
2023-03-02T04:33:07.405Z,-4.94
2023-03-02T04:36:10.609Z,-4.93
2023-03-02T04:39:15.710Z,-5.00
2023-03-02T04:42:20.472Z,-5.00
2023-03-02T04:45:23.108Z,-4.95
2023-03-02T04:48:26.213Z,-5.03
2023-03-02T04:51:34.150Z,-5.02
2023-03-02T04:54:36.811Z,-5.01
2023-03-02T04:57:39.669Z,-4.98
2023-03-02T05:00:42.491Z,-5.05
2023-03-02T05:03:46.224Z,-5.08
2023-03-02T05:06:49.242Z,-5.17
2023-03-02T05:09:52.650Z,-5.25
2023-03-02T05:12:58.035Z,-5.35
2023-03-02T05:16:01.332Z,-5.45
2023-03-02T05:19:06.169Z,-5.44
2023-03-02T05:22:08.910Z,-5.39
2023-03-02T05:25:12.310Z,-5.28
2023-03-02T05:28:15.236Z,-5.32
2023-03-02T05:31:29.991Z,-5.32
2023-03-02T05:34:32.781Z,-5.32
2023-03-02T05:37:35.750Z,-5.31
2023-03-02T05:40:42.790Z,-5.25
2023-03-02T05:43:45.813Z,-5.28
2023-03-02T05:47:00.958Z,-5.25
2023-03-02T05:50:04.043Z,-5.20
2023-03-02T05:53:07.523Z,-5.12
2023-03-02T05:56:10.461Z,-5.07
2023-03-02T05:59:13.131Z,-5.01
2023-03-02T06:02:16.145Z,-4.95
2023-03-02T06:05:20.395Z,-4.97
2023-03-02T06:08:23.140Z,-4.99
2023-03-02T06:11:30.542Z,-4.99
2023-03-02T06:14:33.869Z,-4.96
2023-03-02T06:17:39.700Z,-4.81
2023-03-02T06:20:42.633Z,-4.67
2023-03-02T06:23:45.292Z,-4.56
2023-03-02T06:26:48.074Z,-4.40
2023-03-02T06:29:50.922Z,-4.27
2023-03-02T06:32:53.700Z,-4.13
2023-03-02T06:35:59.748Z,-3.95
2023-03-02T06:39:02.550Z,-3.80
2023-03-02T06:42:05.286Z,-3.60
2023-03-02T06:45:11.410Z,-3.44
2023-03-02T06:48:17.572Z,-3.29
2023-03-02T06:51:20.304Z,-3.08
2023-03-02T06:54:24.179Z,-2.89
2023-03-02T06:57:33.953Z,-2.68
2023-03-02T07:00:37.214Z,-2.43
2023-03-02T07:03:40.236Z,-2.20
2023-03-02T07:06:42.978Z,-1.95
2023-03-02T07:09:45.723Z,-1.70
2023-03-02T07:12:48.452Z,-1.47
2023-03-02T07:15:51.303Z,-1.21
2023-03-02T07:18:54.049Z,-1.05
2023-03-02T07:21:56.911Z,-0.84
2023-03-02T07:25:02.938Z,-0.62
2023-03-02T07:28:05.657Z,-0.40
2023-03-02T07:31:12.352Z,-0.20
2023-03-02T07:34:18.394Z,-0.03
2023-03-02T07:37:21.138Z,0.19
2023-03-02T07:40:24.257Z,0.40
2023-03-02T07:43:29.028Z,0.57
2023-03-02T07:46:36.937Z,0.79
2023-03-02T07:49:43.848Z,1.03
2023-03-02T07:52:49.522Z,1.18
2023-03-02T07:55:52.479Z,1.32
2023-03-02T07:58:55.356Z,1.67
2023-03-02T08:02:01.181Z,1.86
2023-03-02T08:05:04.108Z,1.99
2023-03-02T08:08:06.877Z,2.13
2023-03-02T08:11:14.643Z,2.35
2023-03-02T08:14:17.348Z,2.53
2023-03-02T08:17:21.032Z,2.61
2023-03-02T08:20:23.852Z,2.84
2023-03-02T08:23:27.607Z,3.06
2023-03-02T08:26:30.429Z,3.29
2023-03-02T08:29:34.193Z,3.60
2023-03-02T08:32:37.142Z,3.78
2023-03-02T08:35:40.093Z,4.06
2023-03-02T08:38:43.184Z,4.24
2023-03-02T08:41:45.977Z,4.33
2023-03-02T08:44:51.726Z,4.53
2023-03-02T08:47:54.969Z,4.70
2023-03-02T08:51:03.020Z,4.97
2023-03-02T08:54:05.743Z,5.22
2023-03-02T08:57:11.827Z,5.52
2023-03-02T09:00:16.507Z,5.77
2023-03-02T09:03:19.817Z,6.04
2023-03-02T09:06:25.734Z,6.30
2023-03-02T09:09:28.379Z,6.43
2023-03-02T09:12:31.105Z,6.91
2023-03-02T09:15:33.938Z,7.06
2023-03-02T09:18:39.831Z,7.19
2023-03-02T09:21:42.598Z,7.39
2023-03-02T09:24:45.527Z,7.49
2023-03-02T09:27:48.966Z,7.61
2023-03-02T09:30:58.376Z,8.02
2023-03-02T09:34:01.128Z,8.14
2023-03-02T09:37:04.235Z,8.50
2023-03-02T09:40:23.085Z,8.77
2023-03-02T09:43:48.198Z,9.09
2023-03-02T09:46:57.026Z,9.26
2023-03-02T09:50:05.847Z,9.33
2023-03-02T09:53:30.647Z,9.82
2023-03-02T09:56:36.997Z,9.69
2023-03-02T09:59:46.232Z,10.12
2023-03-02T10:02:49.641Z,9.95
2023-03-02T10:05:57.136Z,10.02
2023-03-02T10:08:59.913Z,10.48
2023-03-02T10:12:14.947Z,10.93
2023-03-02T10:15:24.513Z,10.93
2023-03-02T10:18:54.172Z,11.29
2023-03-02T10:22:09.382Z,11.96
2023-03-02T10:25:47.488Z,12.00
2023-03-02T10:29:04.997Z,12.67
2023-03-02T10:32:18.276Z,13.05
2023-03-02T10:35:25.993Z,13.20
2023-03-02T10:38:29.300Z,13.25
2023-03-02T10:41:41.203Z,13.72
2023-03-02T10:45:19.607Z,13.60
2023-03-02T10:48:22.338Z,13.84
2023-03-02T10:51:31.159Z,13.67
2023-03-02T10:54:35.908Z,13.66
2023-03-02T10:57:46.359Z,14.10
2023-03-02T11:00:57.687Z,14.53
2023-03-02T11:04:02.492Z,14.75
2023-03-02T11:07:19.341Z,14.86
2023-03-02T11:10:25.653Z,15.16
2023-03-02T11:13:35.021Z,15.49
2023-03-02T11:16:37.784Z,15.70
2023-03-02T11:19:41.733Z,15.90
2023-03-02T11:23:04.191Z,16.30
2023-03-02T11:26:20.893Z,16.60
2023-03-02T11:29:37.969Z,16.40
2023-03-02T11:32:45.531Z,16.28
2023-03-02T11:35:53.610Z,16.44
2023-03-02T11:38:56.607Z,17.16
2023-03-02T11:42:00.904Z,17.35
2023-03-02T11:45:15.576Z,17.34
2023-03-02T11:48:42.429Z,16.08
2023-03-02T11:51:58.261Z,17.25
2023-03-02T11:55:25.363Z,17.70
2023-03-02T11:58:30.161Z,18.33
2023-03-02T12:01:35.989Z,18.27
2023-03-02T12:04:39.198Z,17.73
2023-03-02T12:07:42.695Z,18.50
2023-03-02T12:11:03.899Z,18.66
2023-03-02T12:14:27.519Z,18.60
2023-03-02T12:17:33.276Z,18.83
2023-03-02T12:20:43.708Z,19.33
2023-03-02T12:23:49.481Z,19.70
2023-03-02T12:27:27.315Z,17.75
2023-03-02T12:30:33.463Z,18.69
2023-03-02T12:33:48.697Z,19.50
2023-03-02T12:36:55.013Z,20.00
2023-03-02T12:40:33.955Z,20.20
2023-03-02T12:43:38.457Z,19.96
2023-03-02T12:46:45.616Z,20.13
2023-03-02T12:49:55.357Z,20.02
2023-03-02T12:53:04.038Z,20.71
2023-03-02T12:56:09.046Z,19.88
2023-03-02T12:59:22.700Z,20.68
2023-03-02T13:02:31.594Z,20.75
2023-03-02T13:05:36.034Z,20.55
2023-03-02T13:08:39.434Z,20.94
2023-03-02T13:11:49.641Z,20.87
2023-03-02T13:14:57.475Z,20.84
2023-03-02T13:18:01.158Z,20.82
2023-03-02T13:21:14.090Z,20.62
2023-03-02T13:24:31.765Z,21.08
2023-03-02T13:27:34.995Z,21.25
2023-03-02T13:30:48.834Z,20.17
2023-03-02T13:33:53.419Z,21.23
2023-03-02T13:36:59.270Z,21.23
2023-03-02T13:40:05.021Z,20.96
2023-03-02T13:43:40.725Z,21.10
2023-03-02T13:46:46.688Z,19.67
2023-03-02T13:49:53.198Z,19.92
2023-03-02T13:52:57.490Z,19.48
2023-03-02T13:56:04.669Z,18.11
2023-03-02T13:59:15.316Z,19.00
2023-03-02T14:02:26.720Z,20.24
2023-03-02T14:05:36.813Z,20.87
2023-03-02T14:08:39.850Z,21.28
2023-03-02T14:11:47.683Z,21.36
2023-03-02T14:14:53.709Z,21.47
2023-03-02T14:17:56.357Z,21.34
2023-03-02T14:21:00.647Z,21.63
2023-03-02T14:24:03.740Z,21.66
2023-03-02T14:27:06.731Z,22.00
2023-03-02T14:30:21.238Z,21.94
2023-03-02T14:33:26.690Z,21.81
2023-03-02T14:36:32.059Z,21.77
2023-03-02T14:39:38.721Z,21.71
2023-03-02T14:42:43.176Z,21.79
2023-03-02T14:45:45.974Z,20.75
2023-03-02T14:48:48.682Z,21.55
2023-03-02T14:52:06.504Z,21.55
2023-03-02T14:55:14.820Z,20.30
2023-03-02T14:58:20.713Z,19.74
2023-03-02T15:01:24.377Z,20.50
2023-03-02T15:04:34.945Z,20.26
2023-03-02T15:07:39.149Z,20.48
2023-03-02T15:10:43.849Z,20.61
2023-03-02T15:13:47.223Z,20.64
2023-03-02T15:16:49.960Z,20.45
2023-03-02T15:19:53.316Z,19.65
2023-03-02T15:22:56.611Z,19.91
2023-03-02T15:26:04.231Z,19.98
2023-03-02T15:29:07.419Z,19.78
2023-03-02T15:32:13.703Z,19.38
2023-03-02T15:35:16.581Z,19.27
2023-03-02T15:38:20.729Z,18.93
2023-03-02T15:41:26.759Z,18.78
2023-03-02T15:44:33.637Z,18.41
2023-03-02T15:47:39.700Z,17.39
2023-03-02T15:50:42.693Z,17.36
2023-03-02T15:53:46.525Z,17.17
2023-03-02T15:56:52.695Z,16.89
2023-03-02T15:59:56.002Z,16.44
2023-03-02T16:02:58.728Z,15.26
2023-03-02T16:06:02.650Z,14.83
2023-03-02T16:09:06.747Z,14.15
2023-03-02T16:12:09.678Z,13.36
2023-03-02T16:15:13.255Z,12.73
2023-03-02T16:18:19.265Z,12.13
2023-03-02T16:21:23.222Z,11.62
2023-03-02T16:24:26.203Z,11.26
2023-03-02T16:27:30.649Z,10.82
2023-03-02T16:30:36.724Z,10.44
2023-03-02T16:33:40.171Z,10.05
2023-03-02T16:36:43.319Z,9.68
2023-03-02T16:39:49.243Z,9.38
2023-03-02T16:42:52.410Z,9.10
2023-03-02T16:45:55.656Z,8.84
2023-03-02T16:48:58.994Z,8.51
2023-03-02T16:52:02.797Z,8.14
2023-03-02T16:55:11.222Z,7.82
2023-03-02T16:58:14.101Z,7.48
2023-03-02T17:01:20.043Z,7.28
2023-03-02T17:04:23.761Z,7.05
2023-03-02T17:07:26.720Z,6.88
2023-03-02T17:10:30.723Z,6.72
2023-03-02T17:13:34.349Z,6.57
2023-03-02T17:16:37.347Z,6.39
2023-03-02T17:19:40.122Z,6.17
2023-03-02T17:22:44.271Z,6.11
2023-03-02T17:25:47.165Z,5.99
2023-03-02T17:28:50.341Z,5.82
2023-03-02T17:31:53.771Z,5.59
2023-03-02T17:34:57.251Z,5.54
2023-03-02T17:37:59.964Z,5.37
2023-03-02T17:41:08.192Z,5.23
2023-03-02T17:44:11.426Z,5.05
2023-03-02T17:47:17.856Z,4.91
2023-03-02T17:50:24.589Z,4.79
2023-03-02T17:53:28.605Z,4.67
2023-03-02T17:56:31.304Z,4.54
2023-03-02T17:59:34.229Z,4.40
2023-03-02T18:02:37.206Z,4.32
2023-03-02T18:05:40.052Z,4.18
2023-03-02T18:08:42.892Z,4.10
2023-03-02T18:11:46.466Z,3.94
2023-03-02T18:14:49.288Z,3.84
2023-03-02T18:17:52.379Z,3.67
2023-03-02T18:20:55.873Z,3.46
2023-03-02T18:23:59.895Z,3.25
2023-03-02T18:27:02.682Z,3.12
2023-03-02T18:30:06.962Z,2.86
2023-03-02T18:33:15.006Z,2.83
2023-03-02T18:36:18.127Z,2.79
2023-03-02T18:39:21.278Z,2.75
2023-03-02T18:42:25.873Z,2.69
2023-03-02T18:45:32.008Z,2.64
2023-03-02T18:48:35.053Z,2.68
2023-03-02T18:51:38.022Z,2.58
2023-03-02T18:54:41.184Z,2.53
2023-03-02T18:57:44.825Z,2.46
2023-03-02T19:00:51.194Z,2.35
2023-03-02T19:03:57.024Z,2.28
2023-03-02T19:07:01.104Z,2.27
2023-03-02T19:10:04.677Z,2.11
2023-03-02T19:13:09.589Z,1.97
2023-03-02T19:16:14.162Z,1.94
2023-03-02T19:19:17.633Z,1.84
2023-03-02T19:22:20.583Z,1.63
2023-03-02T19:25:24.622Z,1.33
2023-03-02T19:28:27.875Z,1.38
2023-03-02T19:31:33.110Z,1.28
2023-03-02T19:34:37.409Z,1.29
2023-03-02T19:37:40.461Z,1.20
2023-03-02T19:40:43.498Z,1.20
2023-03-02T19:43:48.727Z,1.14
2023-03-02T19:46:51.938Z,1.08
2023-03-02T19:49:55.245Z,1.05
2023-03-02T19:52:58.841Z,0.97
2023-03-02T19:56:04.406Z,0.87
2023-03-02T19:59:08.077Z,0.80
2023-03-02T20:02:11.579Z,0.77
2023-03-02T20:05:15.111Z,0.69
2023-03-02T20:08:18.279Z,0.59
2023-03-02T20:11:22.683Z,0.53
2023-03-02T20:14:33.823Z,0.49
2023-03-02T20:17:38.167Z,0.42
2023-03-02T20:20:43.103Z,0.34
2023-03-02T20:23:50.192Z,0.30
2023-03-02T20:26:53.170Z,0.28
2023-03-02T20:29:56.870Z,0.19
2023-03-02T20:33:00.804Z,0.10
2023-03-02T20:36:04.426Z,0.08
2023-03-02T20:39:18.250Z,0.01
2023-03-02T20:42:21.510Z,-0.04
2023-03-02T20:45:24.928Z,-0.10
2023-03-02T20:48:28.356Z,-0.13
2023-03-02T20:51:32.119Z,-0.20
2023-03-02T20:54:40.847Z,-0.26
2023-03-02T20:57:43.942Z,-0.35
2023-03-02T21:00:49.057Z,-0.38
2023-03-02T21:03:52.353Z,-0.42
2023-03-02T21:06:56.366Z,-0.52
2023-03-02T21:09:59.220Z,-0.59
2023-03-02T21:13:02.847Z,-0.61
2023-03-02T21:16:07.484Z,-0.72
2023-03-02T21:19:15.115Z,-0.72
2023-03-02T21:22:20.923Z,-0.74
2023-03-02T21:25:24.008Z,-0.78
2023-03-02T21:28:27.975Z,-0.80
2023-03-02T21:31:32.033Z,-0.88
2023-03-02T21:34:38.375Z,-0.94
2023-03-02T21:37:44.698Z,-0.95
2023-03-02T21:40:48.109Z,-1.03
2023-03-02T21:43:51.968Z,-1.04
2023-03-02T21:46:54.993Z,-1.05
2023-03-02T21:49:58.019Z,-1.10
2023-03-02T21:53:00.769Z,-1.23
2023-03-02T21:56:03.803Z,-1.21
2023-03-02T21:59:06.836Z,-1.21
2023-03-02T22:02:10.537Z,-1.21
2023-03-02T22:05:16.615Z,-1.31
2023-03-02T22:08:20.679Z,-1.36
2023-03-02T22:11:34.579Z,-1.42
2023-03-02T22:14:37.603Z,-1.50
2023-03-02T22:17:40.991Z,-1.55
2023-03-02T22:20:47.532Z,-1.58
2023-03-02T22:23:51.062Z,-1.59
2023-03-02T22:27:19.837Z,-1.62
2023-03-02T22:30:24.650Z,-1.66
2023-03-02T22:33:29.107Z,-1.66
2023-03-02T22:36:31.769Z,-1.66
2023-03-02T22:39:34.467Z,-1.65
2023-03-02T22:42:37.450Z,-1.67
2023-03-02T22:45:40.823Z,-1.69
2023-03-02T22:48:45.668Z,-1.69
2023-03-02T22:51:48.424Z,-1.68
2023-03-02T22:54:51.513Z,-1.70
2023-03-02T22:57:54.372Z,-1.67
2023-03-02T23:00:58.977Z,-1.71
2023-03-02T23:04:24.796Z,-1.79
2023-03-02T23:07:27.758Z,-1.79
2023-03-02T23:10:31.420Z,-1.79
2023-03-02T23:13:39.463Z,-1.77
2023-03-02T23:16:42.290Z,-1.79
2023-03-02T23:19:45.173Z,-1.80
2023-03-02T23:22:50.158Z,-1.78
2023-03-02T23:25:53.026Z,-1.79
2023-03-02T23:28:55.905Z,-1.76
2023-03-02T23:31:58.640Z,-1.68
2023-03-02T23:35:01.376Z,-1.79
2023-03-02T23:38:04.210Z,-1.77
2023-03-02T23:41:08.396Z,-1.80
2023-03-02T23:44:11.182Z,-1.78
2023-03-02T23:47:13.960Z,-1.77
2023-03-02T23:50:16.674Z,-1.70
2023-03-02T23:53:19.626Z,-1.79
2023-03-02T23:56:22.954Z,-1.84
2023-03-02T23:59:25.685Z,-1.96
